Time,TemperatureF,DewpointF,PressureIn,WindDirection,WindDirectionDegrees,WindSpeedMPH,WindSpeedGustMPH,Humidity,HourlyPrecipIn,Conditions,Clouds,dailyrainin,SoftwareType,DateUTC
2014-01-16 00:00:00,33.3,28.4,30.20,WSW,251,0.0,11.0,82,0.00,,,0.00,Wunderground v.1.15,2014-01-16 06:00:00,
2014-01-16 00:05:00,33.3,28.1,30.20,WSW,251,0.0,11.0,81,0.00,,,0.00,Wunderground v.1.15,2014-01-16 06:05:00,
2014-01-16 00:15:00,33.0,28.1,30.20,WSW,251,0.0,11.0,82,0.00,,,0.00,Wunderground v.1.15,2014-01-16 06:15:00,
2014-01-16 00:25:00,32.8,28.8,30.19,SW,228,0.0,11.0,85,0.00,,,0.00,Wunderground v.1.15,2014-01-16 06:25:00,
2014-01-16 00:30:00,32.5,29.1,30.19,SW,228,0.0,11.0,87,0.00,,,0.00,Wunderground v.1.15,2014-01-16 06:30:00,
2014-01-16 00:35:00,32.3,29.1,30.19,SW,229,0.0,11.0,88,0.00,,,0.00,Wunderground v.1.15,2014-01-16 06:35:00,
2014-01-16 00:40:00,32.0,29.1,30.19,SW,229,0.0,11.0,89,0.00,,,0.00,Wunderground v.1.15,2014-01-16 06:40:00,
2014-01-16 00:45:00,32.0,29.4,30.19,SW,228,0.0,11.0,90,0.00,,,0.00,Wunderground v.1.15,2014-01-16 06:45:00,
2014-01-16 00:55:00,31.6,28.2,30.19,SW,229,0.0,11.0,87,0.00,,,0.00,Wunderground v.1.15,2014-01-16 06:55:00,
2014-01-16 01:00:00,31.4,27.7,30.19,SW,228,0.0,11.0,86,0.00,,,0.00,Wunderground v.1.15,2014-01-16 07:00:00,
2014-01-16 01:05:00,31.5,28.4,30.19,SW,229,0.0,11.0,88,0.00,,,0.00,Wunderground v.1.15,2014-01-16 07:05:00,
2014-01-16 01:10:00,31.4,28.3,30.19,SW,229,0.0,11.0,88,0.00,,,0.00,Wunderground v.1.15,2014-01-16 07:10:00,
2014-01-16 01:15:00,31.4,28.5,30.18,SSW,196,0.0,11.0,89,0.00,,,0.00,Wunderground v.1.15,2014-01-16 07:15:00,
2014-01-16 01:20:00,31.5,29.2,30.18,SE,136,0.0,11.0,91,0.00,,,0.00,Wunderground v.1.15,2014-01-16 07:20:00,
2014-01-16 01:30:00,31.2,28.9,30.18,SE,136,0.0,11.0,91,0.00,,,0.00,Wunderground v.1.15,2014-01-16 07:30:00,
2014-01-16 01:35:00,31.1,29.0,30.19,SE,136,0.0,11.0,92,0.00,,,0.00,Wunderground v.1.15,2014-01-16 07:35:00,
2014-01-16 01:40:00,31.5,29.7,30.20,WNW,295,0.0,11.0,93,0.00,,,0.00,Wunderground v.1.15,2014-01-16 07:40:00,
2014-01-16 01:45:00,31.8,29.5,30.19,WNW,301,0.0,11.0,91,0.00,,,0.00,Wunderground v.1.15,2014-01-16 07:45:00,
2014-01-16 01:50:00,31.8,28.7,30.20,NW,317,1.0,11.0,88,0.00,,,0.00,Wunderground v.1.15,2014-01-16 07:50:00,
2014-01-16 02:00:00,31.7,28.3,30.20,NW,312,0.0,11.0,87,0.00,,,0.00,Wunderground v.1.15,2014-01-16 08:00:00,
2014-01-16 02:05:00,31.8,28.1,30.20,WNW,283,0.0,11.0,86,0.00,,,0.00,Wunderground v.1.15,2014-01-16 08:05:00,
2014-01-16 02:10:00,31.8,27.8,30.20,NW,318,0.0,11.0,85,0.00,,,0.00,Wunderground v.1.15,2014-01-16 08:10:00,
2014-01-16 02:15:00,31.8,28.1,30.19,NW,306,0.0,11.0,86,0.00,,,0.00,Wunderground v.1.15,2014-01-16 08:15:00,
2014-01-16 02:20:00,31.8,28.4,30.20,NW,309,1.0,11.0,87,0.00,,,0.00,Wunderground v.1.15,2014-01-16 08:20:00,
2014-01-16 02:25:00,31.7,28.3,30.20,NW,306,0.0,11.0,87,0.00,,,0.00,Wunderground v.1.15,2014-01-16 08:25:00,
2014-01-16 02:35:00,31.6,27.9,30.20,NW,307,0.0,11.0,86,0.00,,,0.00,Wunderground v.1.15,2014-01-16 08:35:00,
2014-01-16 02:40:00,32.1,28.1,30.20,WNW,303,0.0,11.0,85,0.00,,,0.00,Wunderground v.1.15,2014-01-16 08:40:00,
2014-01-16 02:45:00,32.5,28.2,30.20,West,259,0.0,11.0,84,0.00,,,0.00,Wunderground v.1.15,2014-01-16 08:45:00,
2014-01-16 02:50:00,32.7,28.1,30.20,West,266,0.0,11.0,83,0.00,,,0.00,Wunderground v.1.15,2014-01-16 08:50:00,
2014-01-16 02:55:00,32.5,27.6,30.20,West,266,0.0,11.0,82,0.00,,,0.00,Wunderground v.1.15,2014-01-16 08:55:00,
2014-01-16 03:00:00,32.2,27.6,30.19,West,266,0.0,11.0,83,0.00,,,0.00,Wunderground v.1.15,2014-01-16 09:00:00,
2014-01-16 03:05:00,31.8,27.2,30.20,West,266,0.0,11.0,83,0.00,,,0.00,Wunderground v.1.15,2014-01-16 09:05:00,
2014-01-16 03:10:00,31.9,27.6,30.19,West,266,0.0,11.0,84,0.00,,,0.00,Wunderground v.1.15,2014-01-16 09:10:00,
2014-01-16 03:20:00,32.3,29.4,30.19,West,266,0.0,11.0,89,0.00,,,0.00,Wunderground v.1.15,2014-01-16 09:20:00,
2014-01-16 03:25:00,31.8,28.7,30.19,West,266,0.0,11.0,88,0.00,,,0.00,Wunderground v.1.15,2014-01-16 09:25:00,
2014-01-16 03:30:00,31.5,28.6,30.19,West,266,0.0,11.0,89,0.00,,,0.00,Wunderground v.1.15,2014-01-16 09:30:00,
2014-01-16 03:35:00,31.6,29.3,30.19,West,266,0.0,11.0,91,0.00,,,0.00,Wunderground v.1.15,2014-01-16 09:35:00,
2014-01-16 03:40:00,31.7,28.8,30.19,SE,139,0.0,11.0,89,0.00,,,0.00,Wunderground v.1.15,2014-01-16 09:40:00,
2014-01-16 03:45:00,31.4,28.5,30.19,ESE,117,0.0,11.0,89,0.00,,,0.00,Wunderground v.1.15,2014-01-16 09:45:00,
2014-01-16 03:50:00,31.3,28.7,30.19,ESE,117,0.0,11.0,90,0.00,,,0.00,Wunderground v.1.15,2014-01-16 09:50:00,
2014-01-16 03:55:00,31.2,28.9,30.19,ESE,117,0.0,11.0,91,0.00,,,0.00,Wunderground v.1.15,2014-01-16 09:55:00,
2014-01-16 04:00:00,31.5,29.7,30.19,ESE,117,0.0,11.0,93,0.00,,,0.00,Wunderground v.1.15,2014-01-16 10:00:00,
2014-01-16 04:10:00,31.0,28.9,30.19,ESE,123,0.0,11.0,92,0.00,,,0.00,Wunderground v.1.15,2014-01-16 10:10:00,
2014-01-16 04:15:00,30.8,29.0,30.19,ESE,123,0.0,11.0,93,0.00,,,0.00,Wunderground v.1.15,2014-01-16 10:15:00,
2014-01-16 04:20:00,30.7,28.9,30.19,ESE,123,0.0,11.0,93,0.00,,,0.00,Wunderground v.1.15,2014-01-16 10:20:00,
2014-01-16 04:25:00,30.6,28.8,30.18,SE,126,0.0,11.0,93,0.00,,,0.00,Wunderground v.1.15,2014-01-16 10:25:00,
2014-01-16 04:30:00,30.3,28.3,30.18,SE,126,0.0,11.0,92,0.00,,,0.00,Wunderground v.1.15,2014-01-16 10:30:00,
2014-01-16 04:40:00,29.9,27.9,30.18,SE,126,0.0,11.0,92,0.00,,,0.00,Wunderground v.1.15,2014-01-16 10:40:00,
2014-01-16 04:45:00,30.1,28.3,30.18,SE,126,0.0,11.0,93,0.00,,,0.00,Wunderground v.1.15,2014-01-16 10:45:00,
2014-01-16 04:50:00,30.4,28.9,30.18,SE,126,0.0,11.0,94,0.00,,,0.00,Wunderground v.1.15,2014-01-16 10:50:00,
2014-01-16 04:55:00,30.3,28.8,30.18,SE,126,0.0,11.0,94,0.00,,,0.00,Wunderground v.1.15,2014-01-16 10:55:00,
2014-01-16 05:00:00,30.3,28.8,30.18,SE,126,0.0,11.0,94,0.00,,,0.00,Wunderground v.1.15,2014-01-16 11:00:00,
2014-01-16 05:05:00,30.6,29.3,30.18,SE,126,0.0,11.0,95,0.00,,,0.00,Wunderground v.1.15,2014-01-16 11:05:00,
2014-01-16 05:15:00,29.9,28.4,30.17,SE,135,0.0,11.0,94,0.00,,,0.00,Wunderground v.1.15,2014-01-16 11:15:00,
2014-01-16 05:20:00,29.9,28.4,30.17,SE,135,0.0,11.0,94,0.00,,,0.00,Wunderground v.1.15,2014-01-16 11:20:00,
2014-01-16 05:25:00,29.8,28.3,30.17,SE,124,0.0,11.0,94,0.00,,,0.00,Wunderground v.1.15,2014-01-16 11:25:00,
2014-01-16 05:30:00,29.5,28.0,30.17,SE,134,1.0,11.0,94,0.00,,,0.00,Wunderground v.1.15,2014-01-16 11:30:00,
2014-01-16 05:35:00,29.3,27.8,30.17,SE,140,1.0,11.0,94,0.00,,,0.00,Wunderground v.1.15,2014-01-16 11:35:00,
2014-01-16 05:45:00,29.1,27.6,30.17,SE,140,0.0,11.0,94,0.00,,,0.00,Wunderground v.1.15,2014-01-16 11:45:00,
2014-01-16 05:50:00,29.1,27.6,30.17,SE,140,0.0,11.0,94,0.00,,,0.00,Wunderground v.1.15,2014-01-16 11:50:00,
2014-01-16 05:55:00,29.5,28.2,30.17,SE,140,0.0,11.0,95,0.00,,,0.00,Wunderground v.1.15,2014-01-16 11:55:00,
2014-01-16 06:00:00,30.2,28.9,30.17,SE,140,0.0,11.0,95,0.00,,,0.00,Wunderground v.1.15,2014-01-16 12:00:00,
2014-01-16 06:05:00,30.2,28.7,30.17,SE,140,0.0,11.0,94,0.00,,,0.00,Wunderground v.1.15,2014-01-16 12:05:00,
2014-01-16 06:10:00,30.6,29.1,30.17,SE,140,0.0,11.0,94,0.00,,,0.00,Wunderground v.1.15,2014-01-16 12:10:00,
2014-01-16 06:20:00,31.0,28.7,30.16,SE,140,0.0,11.0,91,0.00,,,0.00,Wunderground v.1.15,2014-01-16 12:20:00,
2014-01-16 06:25:00,30.7,28.4,30.16,SE,140,0.0,11.0,91,0.00,,,0.00,Wunderground v.1.15,2014-01-16 12:25:00,
2014-01-16 06:30:00,30.5,28.5,30.16,SE,140,0.0,11.0,92,0.00,,,0.00,Wunderground v.1.15,2014-01-16 12:30:00,
2014-01-16 06:35:00,30.0,28.0,30.16,SE,140,0.0,11.0,92,0.00,,,0.00,Wunderground v.1.15,2014-01-16 12:35:00,
2014-01-16 06:40:00,29.4,27.6,30.16,SE,140,0.0,11.0,93,0.00,,,0.00,Wunderground v.1.15,2014-01-16 12:40:00,
2014-01-16 06:45:00,29.5,28.0,30.16,SE,140,0.0,11.0,94,0.00,,,0.00,Wunderground v.1.15,2014-01-16 12:45:00,
2014-01-16 06:50:00,29.6,28.1,30.16,SE,140,0.0,11.0,94,0.00,,,0.00,Wunderground v.1.15,2014-01-16 12:50:00,
2014-01-16 06:55:00,29.8,28.5,30.16,SE,140,0.0,11.0,95,0.00,,,0.00,Wunderground v.1.15,2014-01-16 12:55:00,
2014-01-16 07:00:00,30.1,28.8,30.16,SE,140,0.0,11.0,95,0.00,,,0.00,Wunderground v.1.15,2014-01-16 13:00:00,
2014-01-16 07:05:00,30.1,28.8,30.16,SE,140,0.0,11.0,95,0.00,,,0.00,Wunderground v.1.15,2014-01-16 13:05:00,
2014-01-16 07:10:00,30.1,28.8,30.16,SE,140,0.0,11.0,95,0.00,,,0.00,Wunderground v.1.15,2014-01-16 13:10:00,
2014-01-16 07:20:00,30.4,28.9,30.17,SE,140,0.0,11.0,94,0.00,,,0.00,Wunderground v.1.15,2014-01-16 13:20:00,
2014-01-16 07:25:00,30.9,29.4,30.17,SE,140,0.0,11.0,94,0.00,,,0.00,Wunderground v.1.15,2014-01-16 13:25:00,
2014-01-16 07:30:00,31.6,30.1,30.17,SE,140,0.0,11.0,94,0.00,,,0.00,Wunderground v.1.15,2014-01-16 13:30:00,
2014-01-16 07:35:00,32.3,30.8,30.17,SE,140,0.0,11.0,94,0.00,,,0.00,Wunderground v.1.15,2014-01-16 13:35:00,
2014-01-16 07:40:00,32.6,30.8,30.17,SE,140,0.0,11.0,93,0.00,,,0.00,Wunderground v.1.15,2014-01-16 13:40:00,
2014-01-16 07:45:00,33.0,31.2,30.17,SE,140,0.0,11.0,93,0.00,,,0.00,Wunderground v.1.15,2014-01-16 13:45:00,
2014-01-16 07:55:00,34.6,32.0,30.18,SE,140,0.0,11.0,90,0.00,,,0.00,Wunderground v.1.15,2014-01-16 13:55:00,
2014-01-16 08:00:00,35.0,32.1,30.18,SE,141,0.0,11.0,89,0.00,,,0.00,Wunderground v.1.15,2014-01-16 14:00:00,
2014-01-16 08:05:00,35.2,32.3,30.17,ESE,120,0.0,11.0,89,0.00,,,0.00,Wunderground v.1.15,2014-01-16 14:05:00,
2014-01-16 08:10:00,35.6,32.4,30.18,ESE,117,0.0,11.0,88,0.00,,,0.00,Wunderground v.1.15,2014-01-16 14:10:00,
2014-01-16 08:15:00,36.9,34.0,30.18,ESE,119,0.0,11.0,89,0.00,,,0.00,Wunderground v.1.15,2014-01-16 14:15:00,
2014-01-16 08:25:00,38.9,34.8,30.19,SSE,148,0.0,11.0,85,0.00,,,0.00,Wunderground v.1.15,2014-01-16 14:25:00,
2014-01-16 08:30:00,40.2,34.2,30.19,SSE,150,0.0,11.0,79,0.00,,,0.00,Wunderground v.1.15,2014-01-16 14:30:00,
2014-01-16 08:35:00,40.8,34.8,30.19,SSE,154,1.0,11.0,79,0.00,,,0.00,Wunderground v.1.15,2014-01-16 14:35:00,
2014-01-16 08:40:00,41.3,35.6,30.19,SSE,148,1.0,11.0,80,0.00,,,0.00,Wunderground v.1.15,2014-01-16 14:40:00,
2014-01-16 08:45:00,42.0,36.0,30.20,SE,138,1.0,11.0,79,0.00,,,0.00,Wunderground v.1.15,2014-01-16 14:45:00,
2014-01-16 08:50:00,43.1,37.0,30.20,SSE,163,0.0,11.0,79,0.00,,,0.00,Wunderground v.1.15,2014-01-16 14:50:00,
2014-01-16 09:00:00,45.6,38.5,30.20,SSE,156,1.0,11.0,76,0.00,,,0.00,Wunderground v.1.15,2014-01-16 15:00:00,
2014-01-16 09:05:00,47.3,39.4,30.20,South,178,1.0,11.0,74,0.00,,,0.00,Wunderground v.1.15,2014-01-16 15:05:00,
2014-01-16 09:10:00,48.8,38.3,30.20,SSW,204,2.0,11.0,67,0.00,,,0.00,Wunderground v.1.15,2014-01-16 15:10:00,
2014-01-16 09:15:00,49.1,37.8,30.20,South,171,4.0,11.0,65,0.00,,,0.00,Wunderground v.1.15,2014-01-16 15:15:00,
2014-01-16 09:20:00,49.4,37.7,30.20,South,174,5.0,11.0,64,0.00,,,0.00,Wunderground v.1.15,2014-01-16 15:20:00,
2014-01-16 09:30:00,50.3,36.5,30.20,SW,214,5.0,5.0,59,0.00,,,0.00,Wunderground v.1.15,2014-01-16 15:30:00,
2014-01-16 09:35:00,50.7,36.5,30.20,SW,219,6.0,6.0,58,0.00,,,0.00,Wunderground v.1.15,2014-01-16 15:35:00,
2014-01-16 09:40:00,51.2,35.1,30.20,South,184,6.0,6.0,54,0.00,,,0.00,Wunderground v.1.15,2014-01-16 15:40:00,
2014-01-16 09:45:00,51.9,37.1,30.20,SSE,160,5.0,7.0,57,0.00,,,0.00,Wunderground v.1.15,2014-01-16 15:45:00,
2014-01-16 09:50:00,52.6,36.9,30.20,SSE,164,5.0,11.0,55,0.00,,,0.00,Wunderground v.1.15,2014-01-16 15:50:00,
2014-01-16 09:55:00,52.7,37.4,30.20,South,187,6.0,11.0,56,0.00,,,0.00,Wunderground v.1.15,2014-01-16 15:55:00,
2014-01-16 10:05:00,53.6,37.3,30.20,South,180,7.0,11.0,54,0.00,,,0.00,Wunderground v.1.15,2014-01-16 16:05:00,
2014-01-16 10:10:00,54.2,36.9,30.19,SSE,162,6.0,11.0,52,0.00,,,0.00,Wunderground v.1.15,2014-01-16 16:10:00,
2014-01-16 10:15:00,54.4,38.1,30.19,South,176,6.0,12.0,54,0.00,,,0.00,Wunderground v.1.15,2014-01-16 16:15:00,
2014-01-16 10:20:00,54.9,37.1,30.19,SW,232,7.0,11.0,51,0.00,,,0.00,Wunderground v.1.15,2014-01-16 16:20:00,
2014-01-16 10:25:00,55.1,36.8,30.19,SE,136,7.0,11.0,50,0.00,,,0.00,Wunderground v.1.15,2014-01-16 16:25:00,
2014-01-16 10:30:00,55.5,37.1,30.19,SW,234,7.0,7.0,50,0.00,,,0.00,Wunderground v.1.15,2014-01-16 16:30:00,
2014-01-16 10:35:00,56.1,36.7,30.19,South,177,5.0,11.0,48,0.00,,,0.00,Wunderground v.1.15,2014-01-16 16:35:00,
2014-01-16 10:40:00,56.7,37.2,30.19,SSW,195,5.0,5.0,48,0.00,,,0.00,Wunderground v.1.15,2014-01-16 16:40:00,
2014-01-16 10:45:00,56.9,36.9,30.19,SSW,212,6.0,6.0,47,0.00,,,0.00,Wunderground v.1.15,2014-01-16 16:45:00,
2014-01-16 10:50:00,57.0,36.4,30.19,WNW,289,6.0,11.0,46,0.00,,,0.00,Wunderground v.1.15,2014-01-16 16:50:00,
2014-01-16 10:55:00,57.4,37.9,30.18,SW,215,6.0,11.0,48,0.00,,,0.00,Wunderground v.1.15,2014-01-16 16:55:00,
2014-01-16 11:05:00,57.1,36.5,30.18,WSW,237,9.0,12.0,46,0.00,,,0.00,Wunderground v.1.15,2014-01-16 17:05:00,
2014-01-16 11:10:00,56.9,35.8,30.18,SW,231,11.0,11.0,45,0.00,,,0.00,Wunderground v.1.15,2014-01-16 17:10:00,
2014-01-16 11:15:00,57.2,37.7,30.17,SW,226,11.0,11.0,48,0.00,,,0.00,Wunderground v.1.15,2014-01-16 17:15:00,
2014-01-16 11:20:00,57.4,37.3,30.18,SW,236,9.0,9.0,47,0.00,,,0.00,Wunderground v.1.15,2014-01-16 17:20:00,
2014-01-16 11:25:00,57.5,37.9,30.17,West,264,9.0,11.0,48,0.00,,,0.00,Wunderground v.1.15,2014-01-16 17:25:00,
2014-01-16 11:30:00,57.8,38.8,30.17,WSW,241,8.0,8.0,49,0.00,,,0.00,Wunderground v.1.15,2014-01-16 17:30:00,
2014-01-16 11:40:00,58.2,37.5,30.17,SW,228,8.0,11.0,46,0.00,,,0.00,Wunderground v.1.15,2014-01-16 17:40:00,
2014-01-16 11:45:00,58.4,37.1,30.16,SW,226,9.0,11.0,45,0.00,,,0.00,Wunderground v.1.15,2014-01-16 17:45:00,
2014-01-16 11:50:00,59.1,37.8,30.16,SW,232,8.0,8.0,45,0.00,,,0.00,Wunderground v.1.15,2014-01-16 17:50:00,
2014-01-16 11:55:00,58.8,36.9,30.16,WSW,237,9.0,13.0,44,0.00,,,0.00,Wunderground v.1.15,2014-01-16 17:55:00,
2014-01-16 12:00:00,58.4,36.6,30.15,West,260,12.0,13.0,44,0.00,,,0.00,Wunderground v.1.15,2014-01-16 18:00:00,
2014-01-16 12:10:00,58.8,37.5,30.15,SW,217,10.0,10.0,45,0.00,,,0.00,Wunderground v.1.15,2014-01-16 18:10:00,
2014-01-16 12:15:00,59.5,38.1,30.14,SW,214,10.0,11.0,45,0.00,,,0.00,Wunderground v.1.15,2014-01-16 18:15:00,
2014-01-16 12:20:00,60.0,38.6,30.14,SW,236,9.0,9.0,45,0.00,,,0.00,Wunderground v.1.15,2014-01-16 18:20:00,
2014-01-16 12:25:00,60.3,37.7,30.13,SW,226,9.0,14.0,43,0.00,,,0.00,Wunderground v.1.15,2014-01-16 18:25:00,
2014-01-16 12:30:00,60.0,37.4,30.13,WSW,241,9.0,12.0,43,0.00,,,0.00,Wunderground v.1.15,2014-01-16 18:30:00,
2014-01-16 12:35:00,60.4,38.4,30.13,WSW,254,9.0,12.0,44,0.00,,,0.00,Wunderground v.1.15,2014-01-16 18:35:00,
2014-01-16 12:45:00,60.2,37.6,30.12,SW,235,11.0,15.0,43,0.00,,,0.00,Wunderground v.1.15,2014-01-16 18:45:00,
2014-01-16 12:50:00,60.5,37.9,30.11,SW,230,11.0,11.0,43,0.00,,,0.00,Wunderground v.1.15,2014-01-16 18:50:00,
2014-01-16 12:55:00,60.2,38.2,30.11,WSW,246,12.0,12.0,44,0.00,,,0.00,Wunderground v.1.15,2014-01-16 18:55:00,
2014-01-16 13:00:00,60.2,39.3,30.10,SSW,207,12.0,12.0,46,0.00,,,0.00,Wunderground v.1.15,2014-01-16 19:00:00,
2014-01-16 13:05:00,60.7,38.6,30.10,SW,225,10.0,12.0,44,0.00,,,0.00,Wunderground v.1.15,2014-01-16 19:05:00,
2014-01-16 13:15:00,60.6,39.7,30.10,WSW,241,11.0,15.0,46,0.00,,,0.00,Wunderground v.1.15,2014-01-16 19:15:00,
2014-01-16 13:20:00,60.8,40.4,30.10,WSW,256,12.0,16.0,47,0.00,,,0.00,Wunderground v.1.15,2014-01-16 19:20:00,
2014-01-16 13:25:00,61.2,41.3,30.09,SW,231,10.0,16.0,48,0.00,,,0.00,Wunderground v.1.15,2014-01-16 19:25:00,
2014-01-16 13:30:00,61.6,40.6,30.09,SW,229,10.0,11.0,46,0.00,,,0.00,Wunderground v.1.15,2014-01-16 19:30:00,
2014-01-16 13:35:00,61.3,41.4,30.09,SW,221,11.0,17.0,48,0.00,,,0.00,Wunderground v.1.15,2014-01-16 19:35:00,
2014-01-16 13:40:00,61.1,41.8,30.09,SW,229,12.0,12.0,49,0.00,,,0.00,Wunderground v.1.15,2014-01-16 19:40:00,
2014-01-16 13:50:00,62.0,41.5,30.09,West,261,10.0,10.0,47,0.00,,,0.00,Wunderground v.1.15,2014-01-16 19:50:00,
2014-01-16 13:55:00,62.4,41.3,30.09,SW,236,8.0,12.0,46,0.00,,,0.00,Wunderground v.1.15,2014-01-16 19:55:00,
2014-01-16 14:00:00,62.7,39.3,30.09,WSW,240,9.0,9.0,42,0.00,,,0.00,Wunderground v.1.15,2014-01-16 20:00:00,
2014-01-16 14:05:00,63.0,39.5,30.09,West,262,9.0,11.0,42,0.00,,,0.00,Wunderground v.1.15,2014-01-16 20:05:00,
2014-01-16 14:10:00,63.2,39.1,30.08,WSW,249,8.0,8.0,41,0.00,,,0.00,Wunderground v.1.15,2014-01-16 20:10:00,
2014-01-16 14:15:00,63.0,39.5,30.08,SW,224,8.0,9.0,42,0.00,,,0.00,Wunderground v.1.15,2014-01-16 20:15:00,
2014-01-16 14:20:00,63.1,40.2,30.08,SW,216,9.0,9.0,43,0.00,,,0.00,Wunderground v.1.15,2014-01-16 20:20:00,
2014-01-16 14:25:00,63.1,40.8,30.08,WSW,246,9.0,15.0,44,0.00,,,0.00,Wunderground v.1.15,2014-01-16 20:25:00,
2014-01-16 14:30:00,62.7,41.6,30.07,SW,234,11.0,11.0,46,0.00,,,0.00,Wunderground v.1.15,2014-01-16 20:30:00,
2014-01-16 14:35:00,63.0,41.3,30.07,SW,221,11.0,11.0,45,0.00,,,0.00,Wunderground v.1.15,2014-01-16 20:35:00,
2014-01-16 14:40:00,62.8,41.1,30.07,SW,231,10.0,10.0,45,0.00,,,0.00,Wunderground v.1.15,2014-01-16 20:40:00,
2014-01-16 14:50:00,62.6,40.9,30.07,WSW,238,11.0,13.0,45,0.00,,,0.00,Wunderground v.1.15,2014-01-16 20:50:00,
2014-01-16 14:55:00,62.7,41.6,30.08,SW,233,11.0,13.0,46,0.00,,,0.00,Wunderground v.1.15,2014-01-16 20:55:00,
2014-01-16 15:00:00,62.9,41.2,30.08,WSW,250,10.0,15.0,45,0.00,,,0.00,Wunderground v.1.15,2014-01-16 21:00:00,
2014-01-16 15:05:00,62.7,41.6,30.07,WSW,237,10.0,15.0,46,0.00,,,0.00,Wunderground v.1.15,2014-01-16 21:05:00,
2014-01-16 15:10:00,62.5,40.9,30.08,SW,218,12.0,12.0,45,0.00,,,0.00,Wunderground v.1.15,2014-01-16 21:10:00,
2014-01-16 15:15:00,62.6,41.5,30.07,SSW,195,12.0,12.0,46,0.00,,,0.00,Wunderground v.1.15,2014-01-16 21:15:00,
2014-01-16 15:25:00,62.6,40.9,30.07,SW,219,11.0,15.0,45,0.00,,,0.00,Wunderground v.1.15,2014-01-16 21:25:00,
2014-01-16 15:30:00,62.7,41.6,30.07,SW,222,11.0,11.0,46,0.00,,,0.00,Wunderground v.1.15,2014-01-16 21:30:00,
2014-01-16 15:35:00,62.8,41.1,30.08,WNW,290,10.0,11.0,45,0.00,,,0.00,Wunderground v.1.15,2014-01-16 21:35:00,
2014-01-16 15:40:00,62.8,41.7,30.08,WSW,245,10.0,11.0,46,0.00,,,0.00,Wunderground v.1.15,2014-01-16 21:40:00,
2014-01-16 15:45:00,62.6,41.5,30.08,SW,229,11.0,11.0,46,0.00,,,0.00,Wunderground v.1.15,2014-01-16 21:45:00,
2014-01-16 15:55:00,62.5,42.0,30.07,SW,236,11.0,12.0,47,0.00,,,0.00,Wunderground v.1.15,2014-01-16 21:55:00,
2014-01-16 16:00:00,62.5,42.0,30.07,SW,226,11.0,12.0,47,0.00,,,0.00,Wunderground v.1.15,2014-01-16 22:00:00,
2014-01-16 16:05:00,62.4,41.9,30.07,SW,219,11.0,12.0,47,0.00,,,0.00,Wunderground v.1.15,2014-01-16 22:05:00,
2014-01-16 16:10:00,62.4,42.4,30.07,SW,233,11.0,11.0,48,0.00,,,0.00,Wunderground v.1.15,2014-01-16 22:10:00,
2014-01-16 16:15:00,62.2,42.3,30.07,SSW,197,11.0,11.0,48,0.00,,,0.00,Wunderground v.1.15,2014-01-16 22:15:00,
2014-01-16 16:20:00,62.1,42.7,30.07,WSW,248,11.0,13.0,49,0.00,,,0.00,Wunderground v.1.15,2014-01-16 22:20:00,
2014-01-16 16:30:00,61.9,42.5,30.07,SW,226,9.0,9.0,49,0.00,,,0.00,Wunderground v.1.15,2014-01-16 22:30:00,
2014-01-16 16:35:00,61.8,43.0,30.07,WSW,256,9.0,11.0,50,0.00,,,0.00,Wunderground v.1.15,2014-01-16 22:35:00,
2014-01-16 16:40:00,61.6,42.8,30.07,WSW,241,10.0,10.0,50,0.00,,,0.00,Wunderground v.1.15,2014-01-16 22:40:00,
2014-01-16 16:45:00,61.5,43.2,30.07,SW,214,10.0,11.0,51,0.00,,,0.00,Wunderground v.1.15,2014-01-16 22:45:00,
2014-01-16 16:50:00,61.4,43.6,30.08,WSW,248,9.0,9.0,52,0.00,,,0.00,Wunderground v.1.15,2014-01-16 22:50:00,
2014-01-16 17:00:00,61.0,43.7,30.07,WSW,246,7.0,7.0,53,0.00,,,0.00,Wunderground v.1.15,2014-01-16 23:00:00,
2014-01-16 17:05:00,60.7,43.9,30.07,SW,222,7.0,11.0,54,0.00,,,0.00,Wunderground v.1.15,2014-01-16 23:05:00,
2014-01-16 17:10:00,60.4,44.2,30.08,SW,234,6.0,11.0,55,0.00,,,0.00,Wunderground v.1.15,2014-01-16 23:10:00,
2014-01-16 17:15:00,60.1,44.3,30.08,SW,217,6.0,11.0,56,0.00,,,0.00,Wunderground v.1.15,2014-01-16 23:15:00,
2014-01-16 17:20:00,59.8,44.5,30.08,WSW,258,7.0,7.0,57,0.00,,,0.00,Wunderground v.1.15,2014-01-16 23:20:00,
2014-01-16 17:25:00,59.4,44.6,30.08,SW,236,6.0,11.0,58,0.00,,,0.00,Wunderground v.1.15,2014-01-16 23:25:00,
2014-01-16 17:30:00,59.0,44.7,30.08,SW,233,5.0,11.0,59,0.00,,,0.00,Wunderground v.1.15,2014-01-16 23:30:00,
2014-01-16 17:35:00,58.6,44.8,30.08,WSW,240,4.0,11.0,60,0.00,,,0.00,Wunderground v.1.15,2014-01-16 23:35:00,
2014-01-16 17:45:00,58.0,45.0,30.08,WSW,238,4.0,11.0,62,0.00,,,0.00,Wunderground v.1.15,2014-01-16 23:45:00,
2014-01-16 17:50:00,57.7,44.8,30.09,WSW,237,4.0,4.0,62,0.00,,,0.00,Wunderground v.1.15,2014-01-16 23:50:00,
2014-01-16 17:55:00,57.4,44.9,30.09,SSW,213,4.0,11.0,63,0.00,,,0.00,Wunderground v.1.15,2014-01-16 23:55:00,
2014-01-16 18:00:00,56.9,44.8,30.09,SSW,209,4.0,4.0,64,0.00,,,0.00,Wunderground v.1.15,2014-01-17 00:00:00,
2014-01-16 18:05:00,56.4,44.8,30.09,SSW,211,3.0,11.0,65,0.00,,,0.00,Wunderground v.1.15,2014-01-17 00:05:00,
2014-01-16 18:10:00,56.2,45.0,30.09,SW,229,3.0,11.0,66,0.00,,,0.00,Wunderground v.1.15,2014-01-17 00:10:00,
2014-01-16 18:15:00,56.1,45.3,30.09,SW,221,3.0,11.0,67,0.00,,,0.00,Wunderground v.1.15,2014-01-17 00:15:00,
2014-01-16 18:20:00,55.8,45.4,30.09,SW,228,3.0,11.0,68,0.00,,,0.00,Wunderground v.1.15,2014-01-17 00:20:00,
2014-01-16 18:25:00,55.6,45.2,30.09,SSW,212,3.0,11.0,68,0.00,,,0.00,Wunderground v.1.15,2014-01-17 00:25:00,
2014-01-16 18:35:00,55.4,45.4,30.09,South,186,3.0,11.0,69,0.00,,,0.00,Wunderground v.1.15,2014-01-17 00:35:00,
2014-01-16 18:40:00,55.3,45.7,30.09,SSW,212,4.0,4.0,70,0.00,,,0.00,Wunderground v.1.15,2014-01-17 00:40:00,
2014-01-16 18:45:00,55.3,45.7,30.09,SW,221,4.0,11.0,70,0.00,,,0.00,Wunderground v.1.15,2014-01-17 00:45:00,
2014-01-16 18:50:00,55.2,45.6,30.09,SW,224,4.0,4.0,70,0.00,,,0.00,Wunderground v.1.15,2014-01-17 00:50:00,
2014-01-16 18:55:00,55.3,46.1,30.09,SW,235,4.0,11.0,71,0.00,,,0.00,Wunderground v.1.15,2014-01-17 00:55:00,
2014-01-16 19:00:00,55.3,46.1,30.10,SW,225,4.0,11.0,71,0.00,,,0.00,Wunderground v.1.15,2014-01-17 01:00:00,
2014-01-16 19:10:00,55.1,45.9,30.10,WSW,237,4.0,11.0,71,0.00,,,0.00,Wunderground v.1.15,2014-01-17 01:10:00,
2014-01-16 19:15:00,55.1,46.2,30.10,SW,230,3.0,11.0,72,0.00,,,0.00,Wunderground v.1.15,2014-01-17 01:15:00,
2014-01-16 19:20:00,55.0,46.1,30.10,SW,232,3.0,11.0,72,0.00,,,0.00,Wunderground v.1.15,2014-01-17 01:20:00,
2014-01-16 19:25:00,55.0,46.1,30.10,WSW,242,3.0,11.0,72,0.00,,,0.00,Wunderground v.1.15,2014-01-17 01:25:00,
2014-01-16 19:30:00,54.9,46.0,30.10,WSW,238,4.0,11.0,72,0.00,,,0.00,Wunderground v.1.15,2014-01-17 01:30:00,
2014-01-16 19:40:00,54.5,46.0,30.10,SW,227,4.0,11.0,73,0.00,,,0.00,Wunderground v.1.15,2014-01-17 01:40:00,
2014-01-16 19:45:00,54.4,46.3,30.11,WSW,240,4.0,11.0,74,0.00,,,0.00,Wunderground v.1.15,2014-01-17 01:45:00,
2014-01-16 19:50:00,54.4,46.3,30.11,SW,233,4.0,11.0,74,0.00,,,0.00,Wunderground v.1.15,2014-01-17 01:50:00,
2014-01-16 19:55:00,54.3,46.2,30.11,WSW,247,4.0,11.0,74,0.00,,,0.00,Wunderground v.1.15,2014-01-17 01:55:00,
2014-01-16 20:00:00,54.3,46.5,30.11,WSW,256,4.0,4.0,75,0.00,,,0.00,Wunderground v.1.15,2014-01-17 02:00:00,
2014-01-16 20:05:00,54.3,46.5,30.11,WSW,242,3.0,5.0,75,0.00,,,0.00,Wunderground v.1.15,2014-01-17 02:05:00,
2014-01-16 20:15:00,54.0,46.3,30.11,WSW,245,3.0,11.0,75,0.00,,,0.00,Wunderground v.1.15,2014-01-17 02:15:00,
2014-01-16 20:20:00,53.9,46.5,30.11,SW,236,3.0,11.0,76,0.00,,,0.00,Wunderground v.1.15,2014-01-17 02:20:00,
2014-01-16 20:25:00,53.8,46.4,30.11,WSW,243,3.0,11.0,76,0.00,,,0.00,Wunderground v.1.15,2014-01-17 02:25:00,
2014-01-16 20:30:00,53.8,46.4,30.11,West,261,3.0,3.0,76,0.00,,,0.00,Wunderground v.1.15,2014-01-17 02:30:00,
2014-01-16 20:35:00,53.7,46.7,30.11,SW,235,2.0,11.0,77,0.00,,,0.00,Wunderground v.1.15,2014-01-17 02:35:00,
2014-01-16 20:45:00,53.5,46.5,30.11,West,271,3.0,11.0,77,0.00,,,0.00,Wunderground v.1.15,2014-01-17 02:45:00,
2014-01-16 20:50:00,53.6,46.6,30.11,WSW,238,3.0,3.0,77,0.00,,,0.00,Wunderground v.1.15,2014-01-17 02:50:00,
2014-01-16 20:55:00,53.5,46.8,30.11,WSW,240,3.0,11.0,78,0.00,,,0.00,Wunderground v.1.15,2014-01-17 02:55:00,
2014-01-16 21:00:00,53.5,46.8,30.11,WSW,255,4.0,11.0,78,0.00,,,0.00,Wunderground v.1.15,2014-01-17 03:00:00,
2014-01-16 21:05:00,53.4,46.7,30.11,WSW,242,4.0,11.0,78,0.00,,,0.00,Wunderground v.1.15,2014-01-17 03:05:00,
2014-01-16 21:10:00,53.3,47.0,30.11,West,269,3.0,3.0,79,0.00,,,0.00,Wunderground v.1.15,2014-01-17 03:10:00,
2014-01-16 21:15:00,53.2,46.9,30.11,WSW,252,2.0,11.0,79,0.00,,,0.00,Wunderground v.1.15,2014-01-17 03:15:00,
2014-01-16 21:20:00,53.2,47.2,30.11,WSW,246,3.0,11.0,80,0.00,,,0.00,Wunderground v.1.15,2014-01-17 03:20:00,
2014-01-16 21:25:00,53.1,47.1,30.11,SW,236,3.0,11.0,80,0.00,,,0.00,Wunderground v.1.15,2014-01-17 03:25:00,
2014-01-16 21:30:00,53.0,47.0,30.11,WSW,237,3.0,3.0,80,0.00,,,0.00,Wunderground v.1.15,2014-01-17 03:30:00,
2014-01-16 21:35:00,53.0,47.0,30.11,WSW,237,3.0,11.0,80,0.00,,,0.00,Wunderground v.1.15,2014-01-17 03:35:00,
2014-01-16 21:40:00,52.9,47.2,30.11,West,259,3.0,3.0,81,0.00,,,0.00,Wunderground v.1.15,2014-01-17 03:40:00,
2014-01-16 21:50:00,52.7,47.4,30.12,WSW,240,1.0,11.0,82,0.00,,,0.00,Wunderground v.1.15,2014-01-17 03:50:00,
2014-01-16 21:55:00,52.6,47.3,30.11,WSW,244,2.0,11.0,82,0.00,,,0.00,Wunderground v.1.15,2014-01-17 03:55:00,
2014-01-16 22:00:00,52.5,47.2,30.12,WSW,255,2.0,2.0,82,0.00,,,0.00,Wunderground v.1.15,2014-01-17 04:00:00,
2014-01-16 22:05:00,52.4,47.4,30.11,WSW,248,2.0,11.0,83,0.00,,,0.00,Wunderground v.1.15,2014-01-17 04:05:00,
2014-01-16 22:10:00,52.2,47.2,30.11,WSW,240,2.0,11.0,83,0.00,,,0.00,Wunderground v.1.15,2014-01-17 04:10:00,
2014-01-16 22:20:00,52.1,47.4,30.11,WSW,245,3.0,3.0,84,0.00,,,0.00,Wunderground v.1.15,2014-01-17 04:20:00,
2014-01-16 22:25:00,51.9,47.2,30.11,WSW,242,3.0,11.0,84,0.00,,,0.00,Wunderground v.1.15,2014-01-17 04:25:00,
2014-01-16 22:30:00,51.7,47.3,30.11,WSW,255,2.0,11.0,85,0.00,,,0.00,Wunderground v.1.15,2014-01-17 04:30:00,
2014-01-16 22:35:00,51.6,47.2,30.11,West,262,2.0,11.0,85,0.00,,,0.00,Wunderground v.1.15,2014-01-17 04:35:00,
2014-01-16 22:40:00,51.5,47.1,30.11,WSW,240,2.0,11.0,85,0.00,,,0.00,Wunderground v.1.15,2014-01-17 04:40:00,
2014-01-16 22:45:00,51.4,47.4,30.12,WSW,258,2.0,11.0,86,0.00,,,0.00,Wunderground v.1.15,2014-01-17 04:45:00,
2014-01-16 22:55:00,51.4,47.4,30.11,WSW,257,3.0,11.0,86,0.00,,,0.00,Wunderground v.1.15,2014-01-17 04:55:00,
2014-01-16 23:00:00,51.3,47.3,30.11,West,259,4.0,4.0,86,0.00,,,0.00,Wunderground v.1.15,2014-01-17 05:00:00,
2014-01-16 23:05:00,51.2,47.5,30.11,WSW,251,3.0,11.0,87,0.00,,,0.00,Wunderground v.1.15,2014-01-17 05:05:00,
2014-01-16 23:10:00,51.2,47.5,30.11,WSW,254,3.0,11.0,87,0.00,,,0.00,Wunderground v.1.15,2014-01-17 05:10:00,
2014-01-16 23:15:00,51.0,47.3,30.11,West,278,2.0,11.0,87,0.00,,,0.00,Wunderground v.1.15,2014-01-17 05:15:00,
2014-01-16 23:20:00,50.7,47.3,30.11,West,276,2.0,2.0,88,0.00,,,0.00,Wunderground v.1.15,2014-01-17 05:20:00,
2014-01-16 23:25:00,50.5,47.4,30.11,West,265,1.0,3.0,89,0.00,,,0.00,Wunderground v.1.15,2014-01-17 05:25:00,
2014-01-16 23:30:00,50.4,47.3,30.11,WNW,290,1.0,11.0,89,0.00,,,0.00,Wunderground v.1.15,2014-01-17 05:30:00,
2014-01-16 23:35:00,50.3,47.2,30.11,West,271,2.0,11.0,89,0.00,,,0.00,Wunderground v.1.15,2014-01-17 05:35:00,
2014-01-16 23:40:00,50.1,47.3,30.11,WSW,258,2.0,11.0,90,0.00,,,0.00,Wunderground v.1.15,2014-01-17 05:40:00,
2014-01-16 23:45:00,49.9,47.1,30.11,West,260,2.0,11.0,90,0.00,,,0.00,Wunderground v.1.15,2014-01-17 05:45:00,
2014-01-16 23:50:00,50.0,47.5,30.11,West,265,2.0,11.0,91,0.00,,,0.00,Wunderground v.1.15,2014-01-17 05:50:00,